sensor_id;sensor_type;location;lat;lon;timestamp;pressure;altitude;pressure_sealevel;temperature;humidity
788;BME280;16074;42.708;23.312;2023-07-31T00:01:30;143354.56;;;20.83;nan
788;BME280;16074;42.708;23.312;2023-07-31T00:03:58;143358.22;;;20.84;nan
788;BME280;16074;42.708;23.312;2023-07-31T00:06:27;143370.38;;;20.89;nan
788;BME280;16074;42.708;23.312;2023-07-31T00:08:55;143388.59;;;20.97;nan
788;BME280;16074;42.708;23.312;2023-07-31T00:11:23;143397.06;;;21.00;nan
788;BME280;16074;42.708;23.312;2023-07-31T00:13:52;143409.25;;;21.05;nan
788;BME280;16074;42.708;23.312;2023-07-31T00:16:22;143409.25;;;21.05;nan
788;BME280;16074;42.708;23.312;2023-07-31T00:18:51;143428.69;;;21.13;nan
788;BME280;16074;42.708;23.312;2023-07-31T00:21:19;143425.06;;;21.12;nan
788;BME280;16074;42.708;23.312;2023-07-31T00:23:47;143422.63;;;21.11;nan
788;BME280;16074;42.708;23.312;2023-07-31T00:26:16;143411.66;;;21.06;nan
788;BME280;16074;42.708;23.312;2023-07-31T00:28:44;143406.81;;;21.04;nan
788;BME280;16074;42.708;23.312;2023-07-31T00:31:14;143394.66;;;20.99;nan
788;BME280;16074;42.708;23.312;2023-07-31T00:33:43;143386.16;;;20.96;nan
788;BME280;16074;42.708;23.312;2023-07-31T00:36:11;143375.25;;;20.91;nan
788;BME280;16074;42.708;23.312;2023-07-31T00:38:40;143398.31;;;21.01;nan
788;BME280;16074;42.708;23.312;2023-07-31T00:41:08;143406.81;;;21.04;nan
788;BME280;16074;42.708;23.312;2023-07-31T00:43:36;143399.50;;;21.01;nan
788;BME280;16074;42.708;23.312;2023-07-31T00:46:04;143398.31;;;21.01;nan
788;BME280;16074;42.708;23.312;2023-07-31T00:48:33;143386.16;;;20.96;nan
788;BME280;16074;42.708;23.312;2023-07-31T00:51:04;143391.03;;;20.98;nan
788;BME280;16074;42.708;23.312;2023-07-31T00:53:34;143401.94;;;21.02;nan
788;BME280;16074;42.708;23.312;2023-07-31T00:56:04;143360.66;;;20.85;nan
788;BME280;16074;42.708;23.312;2023-07-31T00:58:32;143339.91;;;20.77;nan
788;BME280;16074;42.708;23.312;2023-07-31T01:01:00;143326.56;;;20.71;nan
788;BME280;16074;42.708;23.312;2023-07-31T01:03:29;143316.84;;;20.67;nan
788;BME280;16074;42.708;23.312;2023-07-31T01:06:08;143327.75;;;20.72;nan
788;BME280;16074;42.708;23.312;2023-07-31T01:08:44;143353.34;;;20.82;nan
788;BME280;16074;42.708;23.312;2023-07-31T01:11:17;143303.50;;;20.62;nan
788;BME280;16074;42.708;23.312;2023-07-31T01:13:47;143257.31;;;20.43;nan
788;BME280;16074;42.708;23.312;2023-07-31T01:16:16;143265.81;;;20.46;nan
788;BME280;16074;42.708;23.312;2023-07-31T01:18:44;143250.03;;;20.40;nan
788;BME280;16074;42.708;23.312;2023-07-31T01:21:23;143281.63;;;20.53;nan
788;BME280;16074;42.708;23.312;2023-07-31T01:24:19;143237.88;;;20.35;nan
788;BME280;16074;42.708;23.312;2023-07-31T01:26:53;143209.94;;;20.24;nan
788;BME280;16074;42.708;23.312;2023-07-31T01:29:32;142188.75;;;20.28;nan
788;BME280;16074;42.708;23.312;2023-07-31T01:32:02;143154.34;;;20.40;nan
788;BME280;16074;42.708;23.312;2023-07-31T01:34:31;141551.97;;;20.23;nan
788;BME280;16074;42.708;23.312;2023-07-31T01:37:00;140658.47;;;20.25;nan
788;BME280;16074;42.708;23.312;2023-07-31T01:39:28;139249.06;;;20.22;nan
788;BME280;16074;42.708;23.312;2023-07-31T01:41:58;139059.66;;;20.24;nan
788;BME280;16074;42.708;23.312;2023-07-31T01:44:27;139311.59;;;20.25;nan
788;BME280;16074;42.708;23.312;2023-07-31T01:46:55;138626.78;;;20.25;nan
788;BME280;16074;42.708;23.312;2023-07-31T01:49:26;139299.88;;;20.36;nan
788;BME280;16074;42.708;23.312;2023-07-31T01:51:54;137995.06;;;20.20;nan
788;BME280;16074;42.708;23.312;2023-07-31T01:54:23;137319.63;;;20.32;nan
788;BME280;16074;42.708;23.312;2023-07-31T01:56:51;136871.00;;;20.28;nan
788;BME280;16074;42.708;23.312;2023-07-31T01:59:21;135421.50;;;20.21;nan
788;BME280;16074;42.708;23.312;2023-07-31T02:01:49;134298.69;;;20.23;nan
788;BME280;16074;42.708;23.312;2023-07-31T02:04:20;132431.03;;;20.21;nan
788;BME280;16074;42.708;23.312;2023-07-31T02:06:49;131667.03;;;20.32;nan
788;BME280;16074;42.708;23.312;2023-07-31T02:09:17;131997.50;;;20.25;nan
788;BME280;16074;42.708;23.312;2023-07-31T02:11:46;128484.69;;;20.20;nan
788;BME280;16074;42.708;23.312;2023-07-31T02:14:14;126195.81;;;20.27;nan
788;BME280;16074;42.708;23.312;2023-07-31T02:16:44;127422.88;;;20.38;nan
788;BME280;16074;42.708;23.312;2023-07-31T02:19:12;126830.22;;;20.37;nan
788;BME280;16074;42.708;23.312;2023-07-31T02:21:41;125122.78;;;20.33;nan
788;BME280;16074;42.708;23.312;2023-07-31T02:24:10;122929.97;;;20.32;nan
788;BME280;16074;42.708;23.312;2023-07-31T02:26:38;121407.97;;;20.31;nan
788;BME280;16074;42.708;23.312;2023-07-31T02:29:07;120261.66;;;20.31;nan
788;BME280;16074;42.708;23.312;2023-07-31T02:31:36;119877.00;;;20.38;nan
788;BME280;16074;42.708;23.312;2023-07-31T02:34:06;120888.69;;;20.37;nan
788;BME280;16074;42.708;23.312;2023-07-31T02:36:34;120372.19;;;20.36;nan
788;BME280;16074;42.708;23.312;2023-07-31T02:39:03;121426.66;;;20.50;nan
788;BME280;16074;42.708;23.312;2023-07-31T02:41:32;125310.38;;;20.55;nan
788;BME280;16074;42.708;23.312;2023-07-31T02:44:01;123527.50;;;20.50;nan
788;BME280;16074;42.708;23.312;2023-07-31T02:46:29;125182.91;;;20.57;nan
788;BME280;16074;42.708;23.312;2023-07-31T02:48:58;125468.06;;;20.50;nan
788;BME280;16074;42.708;23.312;2023-07-31T02:51:28;126836.16;;;20.58;nan
788;BME280;16074;42.708;23.312;2023-07-31T02:53:56;128738.31;;;20.61;nan
788;BME280;16074;42.708;23.312;2023-07-31T02:56:25;129381.63;;;20.63;nan
788;BME280;16074;42.708;23.312;2023-07-31T02:58:53;127173.97;;;20.55;nan
788;BME280;16074;42.708;23.312;2023-07-31T03:01:21;128154.31;;;20.58;nan
788;BME280;16074;42.708;23.312;2023-07-31T03:03:50;130284.66;;;20.66;nan
788;BME280;16074;42.708;23.312;2023-07-31T03:06:18;130689.91;;;20.72;nan
788;BME280;16074;42.708;23.312;2023-07-31T03:08:48;134092.72;;;20.84;nan
788;BME280;16074;42.708;23.312;2023-07-31T03:11:16;136036.28;;;20.95;nan
788;BME280;16074;42.708;23.312;2023-07-31T03:13:45;137953.59;;;21.05;nan
788;BME280;16074;42.708;23.312;2023-07-31T03:16:13;140258.81;;;21.11;nan
788;BME280;16074;42.708;23.312;2023-07-31T03:18:42;142352.84;;;21.19;nan
788;BME280;16074;42.708;23.312;2023-07-31T03:21:10;141622.03;;;21.05;nan
788;BME280;16074;42.708;23.312;2023-07-31T03:23:38;142177.75;;;21.17;nan
788;BME280;16074;42.708;23.312;2023-07-31T03:26:09;142787.97;;;21.19;nan
788;BME280;16074;42.708;23.312;2023-07-31T03:28:37;143376.13;;;21.23;nan
788;BME280;16074;42.708;23.312;2023-07-31T03:31:06;143459.06;;;21.26;nan
788;BME280;16074;42.708;23.312;2023-07-31T03:33:35;143420.19;;;21.10;nan
788;BME280;16074;42.708;23.312;2023-07-31T03:36:04;142537.66;;;21.10;nan
788;BME280;16074;42.708;23.312;2023-07-31T03:38:33;143417.78;;;21.09;nan
788;BME280;16074;42.708;23.312;2023-07-31T03:41:02;143276.25;;;21.07;nan
788;BME280;16074;42.708;23.312;2023-07-31T03:43:32;143399.50;;;21.01;nan
788;BME280;16074;42.708;23.312;2023-07-31T03:46:00;142765.56;;;20.93;nan
788;BME280;16074;42.708;23.312;2023-07-31T03:48:30;143386.16;;;20.96;nan
788;BME280;16074;42.708;23.312;2023-07-31T03:50:58;143386.16;;;20.96;nan
788;BME280;16074;42.708;23.312;2023-07-31T03:53:26;143399.50;;;21.01;nan
788;BME280;16074;42.708;23.312;2023-07-31T03:55:55;143395.88;;;21.00;nan
788;BME280;16074;42.708;23.312;2023-07-31T03:58:23;143378.88;;;20.93;nan
788;BME280;16074;42.708;23.312;2023-07-31T04:00:53;143372.81;;;20.90;nan
788;BME280;16074;42.708;23.312;2023-07-31T04:03:21;142901.66;;;20.84;nan
788;BME280;16074;42.708;23.312;2023-07-31T04:05:49;143399.50;;;21.01;nan
788;BME280;16074;42.708;23.312;2023-07-31T04:08:18;143393.47;;;20.99;nan
788;BME280;16074;42.708;23.312;2023-07-31T04:10:46;143372.81;;;20.90;nan
788;BME280;16074;42.708;23.312;2023-07-31T04:13:14;143393.47;;;20.99;nan
788;BME280;16074;42.708;23.312;2023-07-31T04:15:43;143411.66;;;21.06;nan
788;BME280;16074;42.708;23.312;2023-07-31T04:18:17;143422.63;;;21.11;nan
788;BME280;16074;42.708;23.312;2023-07-31T04:20:45;143438.41;;;21.17;nan
788;BME280;16074;42.708;23.312;2023-07-31T04:23:13;143382.53;;;20.94;nan
788;BME280;16074;42.708;23.312;2023-07-31T04:25:41;143399.50;;;21.01;nan
788;BME280;16074;42.708;23.312;2023-07-31T04:28:10;143363.09;;;20.86;nan
788;BME280;16074;42.708;23.312;2023-07-31T04:30:39;143370.38;;;20.89;nan
788;BME280;16074;42.708;23.312;2023-07-31T04:33:07;143377.69;;;20.92;nan
788;BME280;16074;42.708;23.312;2023-07-31T04:35:37;143378.88;;;20.93;nan
788;BME280;16074;42.708;23.312;2023-07-31T04:38:05;143387.34;;;20.96;nan
788;BME280;16074;42.708;23.312;2023-07-31T04:40:33;143375.25;;;20.91;nan
788;BME280;16074;42.708;23.312;2023-07-31T04:43:01;143367.94;;;20.88;nan
788;BME280;16074;42.708;23.312;2023-07-31T04:45:30;143367.94;;;20.88;nan
788;BME280;16074;42.708;23.312;2023-07-31T04:47:58;143395.88;;;21.00;nan
788;BME280;16074;42.708;23.312;2023-07-31T04:50:26;143376.44;;;20.92;nan
788;BME280;16074;42.708;23.312;2023-07-31T04:52:56;143375.25;;;20.91;nan
788;BME280;16074;42.708;23.312;2023-07-31T04:55:25;143369.13;;;20.89;nan
788;BME280;16074;42.708;23.312;2023-07-31T04:57:53;143398.31;;;21.01;nan
788;BME280;16074;42.708;23.312;2023-07-31T05:00:22;143420.19;;;21.10;nan
788;BME280;16074;42.708;23.312;2023-07-31T05:02:50;143420.19;;;21.10;nan
788;BME280;16074;42.708;23.312;2023-07-31T05:05:18;143446.97;;;21.21;nan
788;BME280;16074;42.708;23.312;2023-07-31T05:07:47;143473.66;;;21.32;nan
788;BME280;16074;42.708;23.312;2023-07-31T05:10:16;143493.13;;;21.40;nan
788;BME280;16074;42.708;23.312;2023-07-31T05:12:44;143515.00;;;21.49;nan
788;BME280;16074;42.708;23.312;2023-07-31T05:15:13;143555.19;;;21.65;nan
788;BME280;16074;42.708;23.312;2023-07-31T05:17:42;143541.81;;;21.60;nan
788;BME280;16074;42.708;23.312;2023-07-31T05:20:11;143573.44;;;21.73;nan
788;BME280;16074;42.708;23.312;2023-07-31T05:22:39;143622.06;;;21.92;nan
788;BME280;16074;42.708;23.312;2023-07-31T05:25:08;143656.13;;;22.06;nan
788;BME280;16074;42.708;23.312;2023-07-31T05:27:38;143674.38;;;22.14;nan
788;BME280;16074;42.708;23.312;2023-07-31T05:30:07;143688.97;;;22.20;nan
788;BME280;16074;42.708;23.312;2023-07-31T05:32:36;143724.28;;;22.34;nan
788;BME280;16074;42.708;23.312;2023-07-31T05:35:05;143684.09;;;22.18;nan
788;BME280;16074;42.708;23.312;2023-07-31T05:37:33;143697.53;;;22.23;nan
788;BME280;16074;42.708;23.312;2023-07-31T05:40:02;143704.81;;;22.26;nan
788;BME280;16074;42.708;23.312;2023-07-31T05:42:30;143704.81;;;22.26;nan
788;BME280;16074;42.708;23.312;2023-07-31T05:45:00;143701.16;;;22.25;nan
788;BME280;16074;42.708;23.312;2023-07-31T05:47:28;143678.03;;;22.15;nan
788;BME280;16074;42.708;23.312;2023-07-31T05:49:56;143658.56;;;22.07;nan
788;BME280;16074;42.708;23.312;2023-07-31T05:52:25;143659.81;;;22.08;nan
788;BME280;16074;42.708;23.312;2023-07-31T05:54:53;143690.22;;;22.20;nan
788;BME280;16074;42.708;23.312;2023-07-31T05:57:21;143653.72;;;22.05;nan
788;BME280;16074;42.708;23.312;2023-07-31T05:59:50;143665.88;;;22.10;nan
788;BME280;16074;42.708;23.312;2023-07-31T06:02:21;143680.47;;;22.16;nan
788;BME280;16074;42.708;23.312;2023-07-31T06:04:49;143673.19;;;22.13;nan
788;BME280;16074;42.708;23.312;2023-07-31T06:07:18;143658.56;;;22.07;nan
788;BME280;16074;42.708;23.312;2023-07-31T06:09:46;143674.38;;;22.14;nan
788;BME280;16074;42.708;23.312;2023-07-31T06:12:14;143674.38;;;22.14;nan
788;BME280;16074;42.708;23.312;2023-07-31T06:14:45;143703.56;;;22.26;nan
788;BME280;16074;42.708;23.312;2023-07-31T06:17:13;143738.91;;;22.40;nan
788;BME280;16074;42.708;23.312;2023-07-31T06:19:43;143758.38;;;22.48;nan
788;BME280;16074;42.708;23.312;2023-07-31T06:22:11;143762.06;;;22.50;nan
788;BME280;16074;42.708;23.312;2023-07-31T06:24:39;143788.84;;;22.61;nan
788;BME280;16074;42.708;23.312;2023-07-31T06:27:07;143759.63;;;22.49;nan
788;BME280;16074;42.708;23.312;2023-07-31T06:29:36;143745.00;;;22.43;nan
788;BME280;16074;42.708;23.312;2023-07-31T06:32:04;143745.00;;;22.43;nan
788;BME280;16074;42.708;23.312;2023-07-31T06:34:33;143781.53;;;22.58;nan
788;BME280;16074;42.708;23.312;2023-07-31T06:37:03;143843.59;;;22.83;nan
788;BME280;16074;42.708;23.312;2023-07-31T06:39:31;143904.50;;;23.08;nan
788;BME280;16074;42.708;23.312;2023-07-31T06:42:00;143926.41;;;23.17;nan
788;BME280;16074;42.708;23.312;2023-07-31T06:44:28;143970.28;;;23.35;nan
788;BME280;16074;42.708;23.312;2023-07-31T06:46:56;143975.13;;;23.37;nan
788;BME280;16074;42.708;23.312;2023-07-31T06:49:25;144017.75;;;23.54;nan
788;BME280;16074;42.708;23.312;2023-07-31T06:51:53;143965.41;;;23.33;nan
788;BME280;16074;42.708;23.312;2023-07-31T06:54:23;143928.84;;;23.18;nan
788;BME280;16074;42.708;23.312;2023-07-31T06:56:51;143981.22;;;23.39;nan
788;BME280;16074;42.708;23.312;2023-07-31T06:59:19;143971.47;;;23.35;nan
788;BME280;16074;42.708;23.312;2023-07-31T07:01:47;144010.44;;;23.51;nan
788;BME280;16074;42.708;23.312;2023-07-31T07:04:16;143981.22;;;23.39;nan
788;BME280;16074;42.708;23.312;2023-07-31T07:06:44;143981.22;;;23.39;nan
788;BME280;16074;42.708;23.312;2023-07-31T07:09:12;143934.97;;;23.20;nan
788;BME280;16074;42.708;23.312;2023-07-31T07:11:42;143984.88;;;23.41;nan
788;BME280;16074;42.708;23.312;2023-07-31T07:14:10;143989.75;;;23.43;nan
788;BME280;16074;42.708;23.312;2023-07-31T07:16:39;144006.81;;;23.50;nan
788;BME280;16074;42.708;23.312;2023-07-31T07:19:09;144025.06;;;23.57;nan
788;BME280;16074;42.708;23.312;2023-07-31T07:21:37;144027.50;;;23.58;nan
788;BME280;16074;42.708;23.312;2023-07-31T07:24:05;144048.19;;;23.67;nan
788;BME280;16074;42.708;23.312;2023-07-31T07:26:33;144087.25;;;23.83;nan
788;BME280;16074;42.708;23.312;2023-07-31T07:29:03;144161.56;;;24.13;nan
788;BME280;16074;42.708;23.312;2023-07-31T07:31:34;144128.69;;;24.00;nan
788;BME280;16074;42.708;23.312;2023-07-31T07:34:03;144218.84;;;24.36;nan
788;BME280;16074;42.708;23.312;2023-07-31T07:36:31;144310.31;;;24.74;nan
788;BME280;16074;42.708;23.312;2023-07-31T07:39:00;144324.94;;;24.80;nan
788;BME280;16074;42.708;23.312;2023-07-31T07:41:28;144432.28;;;25.24;nan
788;BME280;16074;42.708;23.312;2023-07-31T07:43:56;144510.34;;;25.55;nan
788;BME280;16074;42.708;23.312;2023-07-31T07:46:26;144575.06;;;25.82;nan
788;BME280;16074;42.708;23.312;2023-07-31T07:48:55;144557.97;;;25.75;nan
788;BME280;16074;42.708;23.312;2023-07-31T07:51:23;144489.63;;;25.47;nan
788;BME280;16074;42.708;23.312;2023-07-31T07:53:51;144387.13;;;25.05;nan
788;BME280;16074;42.708;23.312;2023-07-31T07:56:20;144410.34;;;25.15;nan
788;BME280;16074;42.708;23.312;2023-07-31T07:58:50;144395.66;;;25.09;nan
788;BME280;16074;42.708;23.312;2023-07-31T08:01:18;144416.47;;;25.17;nan
788;BME280;16074;42.708;23.312;2023-07-31T08:03:48;144394.44;;;25.08;nan
788;BME280;16074;42.708;23.312;2023-07-31T08:06:16;144398.09;;;25.10;nan
788;BME280;16074;42.708;23.312;2023-07-31T08:08:45;144467.66;;;25.38;nan
788;BME280;16074;42.708;23.312;2023-07-31T08:11:13;144510.34;;;25.55;nan
788;BME280;16074;42.708;23.312;2023-07-31T08:13:41;144523.78;;;25.61;nan
788;BME280;16074;42.708;23.312;2023-07-31T08:16:10;144609.22;;;25.96;nan
788;BME280;16074;42.708;23.312;2023-07-31T08:18:38;144626.31;;;26.03;nan
788;BME280;16074;42.708;23.312;2023-07-31T08:21:09;144705.66;;;26.35;nan
788;BME280;16074;42.708;23.312;2023-07-31T08:23:37;144835.13;;;26.88;nan
788;BME280;16074;42.708;23.312;2023-07-31T08:26:05;144854.69;;;26.96;nan
788;BME280;16074;42.708;23.312;2023-07-31T08:28:33;144793.59;;;26.71;nan
788;BME280;16074;42.708;23.312;2023-07-31T08:31:03;144808.25;;;26.77;nan
788;BME280;16074;42.708;23.312;2023-07-31T08:33:32;144891.38;;;27.11;nan
788;BME280;16074;42.708;23.312;2023-07-31T08:36:00;144890.16;;;27.10;nan
788;BME280;16074;42.708;23.312;2023-07-31T08:38:30;144851.00;;;26.94;nan
788;BME280;16074;42.708;23.312;2023-07-31T08:40:59;144951.25;;;27.35;nan
788;BME280;16074;42.708;23.312;2023-07-31T08:43:27;145062.44;;;27.81;nan
788;BME280;16074;42.708;23.312;2023-07-31T08:45:55;145100.38;;;27.96;nan
788;BME280;16074;42.708;23.312;2023-07-31T08:48:25;145149.25;;;28.16;nan
788;BME280;16074;42.708;23.312;2023-07-31T08:50:54;145243.44;;;28.54;nan
788;BME280;16074;42.708;23.312;2023-07-31T08:53:22;145254.47;;;28.59;nan
788;BME280;16074;42.708;23.312;2023-07-31T08:55:53;145325.44;;;28.88;nan
788;BME280;16074;42.708;23.312;2023-07-31T08:58:22;145426.97;;;29.29;nan
788;BME280;16074;42.708;23.312;2023-07-31T09:00:52;145544.50;;;29.77;nan
788;BME280;16074;42.708;23.312;2023-07-31T09:03:23;145651.06;;;30.20;nan
788;BME280;16074;42.708;23.312;2023-07-31T09:05:53;145684.13;;;30.34;nan
788;BME280;16074;42.708;23.312;2023-07-31T09:08:23;145557.94;;;29.82;nan
788;BME280;16074;42.708;23.312;2023-07-31T09:10:54;145391.50;;;29.15;nan
788;BME280;16074;42.708;23.312;2023-07-31T09:13:22;145445.31;;;29.36;nan
788;BME280;16074;42.708;23.312;2023-07-31T09:15:50;145439.22;;;29.34;nan
788;BME280;16074;42.708;23.312;2023-07-31T09:18:19;145278.91;;;28.69;nan
788;BME280;16074;42.708;23.312;2023-07-31T09:21:00;145351.09;;;28.98;nan
788;BME280;16074;42.708;23.312;2023-07-31T09:23:40;145379.28;;;29.10;nan
788;BME280;16074;42.708;23.312;2023-07-31T09:26:10;145436.78;;;29.33;nan
788;BME280;16074;42.708;23.312;2023-07-31T09:28:39;145411.03;;;29.23;nan
788;BME280;16074;42.708;23.312;2023-07-31T09:31:07;145315.59;;;28.84;nan
788;BME280;16074;42.708;23.312;2023-07-31T09:33:54;145472.28;;;29.47;nan
788;BME280;16074;42.708;23.312;2023-07-31T09:36:22;145548.16;;;29.78;nan
788;BME280;16074;42.708;23.312;2023-07-31T09:38:51;145534.72;;;29.73;nan
788;BME280;16074;42.708;23.312;2023-07-31T09:41:20;145609.44;;;30.03;nan
788;BME280;16074;42.708;23.312;2023-07-31T09:43:53;145674.31;;;30.30;nan
788;BME280;16074;42.708;23.312;2023-07-31T09:46:21;145698.81;;;30.40;nan
788;BME280;16074;42.708;23.312;2023-07-31T09:48:50;145653.50;;;30.21;nan
788;BME280;16074;42.708;23.312;2023-07-31T09:51:25;145686.56;;;30.35;nan
788;BME280;16074;42.708;23.312;2023-07-31T09:53:54;145740.50;;;30.57;nan
788;BME280;16074;42.708;23.312;2023-07-31T09:56:24;145734.38;;;30.54;nan
788;BME280;16074;42.708;23.312;2023-07-31T09:58:54;145768.66;;;30.68;nan
788;BME280;16074;42.708;23.312;2023-07-31T10:01:23;145757.63;;;30.63;nan
788;BME280;16074;42.708;23.312;2023-07-31T10:03:51;145805.44;;;30.83;nan
788;BME280;16074;42.708;23.312;2023-07-31T10:06:20;145829.88;;;30.93;nan
788;BME280;16074;42.708;23.312;2023-07-31T10:08:51;145898.56;;;31.21;nan
788;BME280;16074;42.708;23.312;2023-07-31T10:11:22;145936.53;;;31.36;nan
788;BME280;16074;42.708;23.312;2023-07-31T10:13:52;145999.09;;;31.62;nan
788;BME280;16074;42.708;23.312;2023-07-31T10:16:22;145951.25;;;31.42;nan
788;BME280;16074;42.708;23.312;2023-07-31T10:18:51;145794.38;;;30.78;nan
788;BME280;16074;42.708;23.312;2023-07-31T10:21:20;145874.06;;;31.11;nan
788;BME280;16074;42.708;23.312;2023-07-31T10:23:49;145988.03;;;31.57;nan
788;BME280;16074;42.708;23.312;2023-07-31T10:26:19;146120.47;;;32.11;nan
788;BME280;16074;42.708;23.312;2023-07-31T10:28:48;146158.53;;;32.26;nan
788;BME280;16074;42.708;23.312;2023-07-31T10:31:20;146159.78;;;32.27;nan
788;BME280;16074;42.708;23.312;2023-07-31T10:33:49;146319.22;;;32.92;nan
788;BME280;16074;42.708;23.312;2023-07-31T10:36:19;146405.19;;;33.26;nan
788;BME280;16074;42.708;23.312;2023-07-31T10:38:49;146384.31;;;33.18;nan
788;BME280;16074;42.708;23.312;2023-07-31T10:41:17;146418.69;;;33.32;nan
788;BME280;16074;42.708;23.312;2023-07-31T10:43:46;146114.31;;;32.08;nan
788;BME280;16074;42.708;23.312;2023-07-31T10:46:15;146169.53;;;32.31;nan
788;BME280;16074;42.708;23.312;2023-07-31T10:48:44;146103.31;;;32.04;nan
788;BME280;16074;42.708;23.312;2023-07-31T10:51:13;146239.44;;;32.59;nan
788;BME280;16074;42.708;23.312;2023-07-31T10:53:42;146067.75;;;31.89;nan
788;BME280;16074;42.708;23.312;2023-07-31T10:56:11;146153.63;;;32.24;nan
788;BME280;16074;42.708;23.312;2023-07-31T10:58:44;146187.97;;;32.38;nan
788;BME280;16074;42.708;23.312;2023-07-31T11:01:12;146093.50;;;32.00;nan
788;BME280;16074;42.708;23.312;2023-07-31T11:03:42;145871.59;;;31.10;nan
788;BME280;16074;42.708;23.312;2023-07-31T11:06:12;146100.84;;;32.03;nan
788;BME280;16074;42.708;23.312;2023-07-31T11:08:46;146295.94;;;32.82;nan
788;BME280;16074;42.708;23.312;2023-07-31T11:11:16;146524.28;;;33.75;nan
788;BME280;16074;42.708;23.312;2023-07-31T11:13:46;146583.22;;;33.99;nan
788;BME280;16074;42.708;23.312;2023-07-31T11:16:17;146749.09;;;34.66;nan
788;BME280;16074;42.708;23.312;2023-07-31T11:18:47;146897.81;;;35.26;nan
788;BME280;16074;42.708;23.312;2023-07-31T11:21:18;147115.50;;;36.14;nan
788;BME280;16074;42.708;23.312;2023-07-31T11:23:47;147135.19;;;36.22;nan
788;BME280;16074;42.708;23.312;2023-07-31T11:26:17;147103.22;;;36.09;nan
788;BME280;16074;42.708;23.312;2023-07-31T11:28:47;146980.22;;;35.60;nan
788;BME280;16074;42.708;23.312;2023-07-31T11:31:16;146923.63;;;35.37;nan
788;BME280;16074;42.708;23.312;2023-07-31T11:33:44;146790.88;;;34.83;nan
788;BME280;16074;42.708;23.312;2023-07-31T11:36:14;146833.88;;;35.00;nan
788;BME280;16074;42.708;23.312;2023-07-31T11:38:45;146557.44;;;33.88;nan
788;BME280;16074;42.708;23.312;2023-07-31T11:41:14;146467.78;;;33.52;nan
788;BME280;16074;42.708;23.312;2023-07-31T11:43:43;146222.31;;;32.52;nan
788;BME280;16074;42.708;23.312;2023-07-31T11:46:11;145967.16;;;31.49;nan
788;BME280;16074;42.708;23.312;2023-07-31T11:48:41;146208.78;;;32.47;nan
788;BME280;16074;42.708;23.312;2023-07-31T11:51:10;146384.31;;;33.18;nan
788;BME280;16074;42.708;23.312;2023-07-31T11:53:42;146575.84;;;33.96;nan
788;BME280;16074;42.708;23.312;2023-07-31T11:56:14;146749.09;;;34.66;nan
788;BME280;16074;42.708;23.312;2023-07-31T11:58:46;146785.97;;;34.81;nan
788;BME280;16074;42.708;23.312;2023-07-31T12:01:15;146828.94;;;34.98;nan
788;BME280;16074;42.708;23.312;2023-07-31T12:03:46;146889.19;;;35.23;nan
788;BME280;16074;42.708;23.312;2023-07-31T12:06:15;146773.66;;;34.76;nan
788;BME280;16074;42.708;23.312;2023-07-31T12:08:43;146881.81;;;35.20;nan
788;BME280;16074;42.708;23.312;2023-07-31T12:11:13;146819.13;;;34.94;nan
788;BME280;16074;42.708;23.312;2023-07-31T12:13:41;146666.75;;;34.33;nan
788;BME280;16074;42.708;23.312;2023-07-31T12:16:10;146813.00;;;34.92;nan
788;BME280;16074;42.708;23.312;2023-07-31T12:18:38;146826.50;;;34.97;nan
788;BME280;16074;42.708;23.312;2023-07-31T12:21:08;147044.13;;;35.85;nan
788;BME280;16074;42.708;23.312;2023-07-31T12:23:38;147132.72;;;36.21;nan
788;BME280;16074;42.708;23.312;2023-07-31T12:26:11;147285.25;;;36.83;nan
788;BME280;16074;42.708;23.312;2023-07-31T12:28:42;147479.78;;;37.62;nan
788;BME280;16074;42.708;23.312;2023-07-31T12:31:12;147574.63;;;38.00;nan
788;BME280;16074;42.708;23.312;2023-07-31T12:33:41;147626.38;;;38.21;nan
788;BME280;16074;42.708;23.312;2023-07-31T12:36:11;147388.69;;;37.25;nan
788;BME280;16074;42.708;23.312;2023-07-31T12:38:39;147517.94;;;37.77;nan
788;BME280;16074;42.708;23.312;2023-07-31T12:41:08;147524.13;;;37.80;nan
788;BME280;16074;42.708;23.312;2023-07-31T12:43:37;147397.28;;;37.28;nan
788;BME280;16074;42.708;23.312;2023-07-31T12:46:08;147205.34;;;36.51;nan
788;BME280;16074;42.708;23.312;2023-07-31T12:48:37;147228.69;;;36.60;nan
788;BME280;16074;42.708;23.312;2023-07-31T12:51:06;147028.16;;;35.79;nan
788;BME280;16074;42.708;23.312;2023-07-31T12:53:35;146783.50;;;34.80;nan
788;BME280;16074;42.708;23.312;2023-07-31T12:56:03;146870.78;;;35.15;nan
788;BME280;16074;42.708;23.312;2023-07-31T12:58:32;147024.44;;;35.77;nan
788;BME280;16074;42.708;23.312;2023-07-31T13:01:00;147129.03;;;36.20;nan
788;BME280;16074;42.708;23.312;2023-07-31T13:03:30;147337.00;;;37.04;nan
788;BME280;16074;42.708;23.312;2023-07-31T13:05:59;147516.72;;;37.77;nan
788;BME280;16074;42.708;23.312;2023-07-31T13:08:27;147338.25;;;37.04;nan
788;BME280;16074;42.708;23.312;2023-07-31T13:10:55;147332.06;;;37.02;nan
788;BME280;16074;42.708;23.312;2023-07-31T13:13:24;147301.28;;;36.90;nan
788;BME280;16074;42.708;23.312;2023-07-31T13:15:52;146708.53;;;34.49;nan
788;BME280;16074;42.708;23.312;2023-07-31T13:18:20;146772.47;;;34.75;nan
788;BME280;16074;42.708;23.312;2023-07-31T13:20:50;146655.72;;;34.28;nan
788;BME280;16074;42.708;23.312;2023-07-31T13:23:18;146663.09;;;34.31;nan
788;BME280;16074;42.708;23.312;2023-07-31T13:25:46;146486.19;;;33.59;nan
788;BME280;16074;42.708;23.312;2023-07-31T13:28:15;146545.16;;;33.83;nan
788;BME280;16074;42.708;23.312;2023-07-31T13:30:43;146599.16;;;34.05;nan
788;BME280;16074;42.708;23.312;2023-07-31T13:33:12;146795.78;;;34.85;nan